createdAt,value
2018-07-26T00:00:40.516Z,21.30
2018-07-26T00:03:08.718Z,21.30
2018-07-26T00:08:04.871Z,21.30
2018-07-26T00:10:33.087Z,21.30
2018-07-26T00:13:01.305Z,21.30
2018-07-26T00:15:29.470Z,21.20
2018-07-26T00:17:57.627Z,21.30
2018-07-26T00:20:25.792Z,21.30
2018-07-26T00:22:54.073Z,21.20
2018-07-26T00:25:22.295Z,21.20
2018-07-26T00:27:50.528Z,21.20
2018-07-26T00:30:18.697Z,21.30
2018-07-26T00:32:46.859Z,21.20
2018-07-26T00:35:15.081Z,21.20
2018-07-26T00:37:43.263Z,21.10
2018-07-26T00:40:11.508Z,21.20
2018-07-26T00:42:39.691Z,21.20
2018-07-26T00:45:08.136Z,21.10
2018-07-26T00:47:36.508Z,21.10
2018-07-26T00:50:04.732Z,21.10
2018-07-26T00:52:32.901Z,21.20
2018-07-26T00:55:01.079Z,21.20
2018-07-26T00:57:29.240Z,21.10
2018-07-26T00:59:57.399Z,21.10
2018-07-26T01:02:25.555Z,21.10
2018-07-26T01:04:53.777Z,21.10
2018-07-26T01:07:22.004Z,21.00
2018-07-26T01:09:50.224Z,21.10
2018-07-26T01:12:18.404Z,21.10
2018-07-26T01:14:46.586Z,21.00
2018-07-26T01:17:14.834Z,21.00
2018-07-26T01:19:43.139Z,21.00
2018-07-26T01:22:11.351Z,21.00
2018-07-26T01:24:39.745Z,21.00
2018-07-26T01:27:07.940Z,20.90
2018-07-26T01:29:36.100Z,20.90
2018-07-26T01:32:04.320Z,20.80
2018-07-26T01:34:32.508Z,20.80
2018-07-26T01:37:00.692Z,20.80
2018-07-26T01:39:28.835Z,20.70
2018-07-26T01:41:57.024Z,20.70
2018-07-26T01:44:25.893Z,20.70
2018-07-26T01:46:54.136Z,20.70
2018-07-26T01:49:22.349Z,20.60
2018-07-26T01:51:50.523Z,20.60
2018-07-26T01:54:18.752Z,20.70
2018-07-26T01:56:46.948Z,20.60
2018-07-26T01:59:15.126Z,20.60
2018-07-26T02:01:43.349Z,20.60
2018-07-26T02:04:11.538Z,20.60
2018-07-26T02:06:39.700Z,20.50
2018-07-26T02:09:09.057Z,20.60
2018-07-26T02:11:37.268Z,20.60
2018-07-26T02:14:05.498Z,20.50
2018-07-26T02:16:33.777Z,20.50
2018-07-26T02:19:01.955Z,20.50
2018-07-26T02:21:30.170Z,20.60
2018-07-26T02:23:58.368Z,20.60
2018-07-26T02:26:26.572Z,20.60
2018-07-26T02:28:54.789Z,20.60
2018-07-26T02:31:23.034Z,20.60
2018-07-26T02:33:51.250Z,20.60
2018-07-26T02:36:19.411Z,20.60
2018-07-26T02:38:47.590Z,20.50
2018-07-26T02:41:15.812Z,20.60
2018-07-26T02:43:44.086Z,20.50
2018-07-26T02:46:12.309Z,20.50
2018-07-26T02:48:40.520Z,20.50
2018-07-26T02:51:08.724Z,20.50
2018-07-26T02:53:36.923Z,20.40
2018-07-26T02:56:05.180Z,20.40
2018-07-26T02:58:33.387Z,20.40
2018-07-26T03:01:01.605Z,20.40
2018-07-26T03:03:29.814Z,20.30
2018-07-26T03:05:57.996Z,20.40
2018-07-26T03:08:26.217Z,20.40
2018-07-26T03:10:54.412Z,20.40
2018-07-26T03:13:22.619Z,20.30
2018-07-26T03:15:50.764Z,20.30
2018-07-26T03:18:18.937Z,20.30
2018-07-26T03:20:47.239Z,20.30
2018-07-26T03:23:15.378Z,20.30
2018-07-26T03:25:43.738Z,20.30
2018-07-26T03:28:11.944Z,20.30
2018-07-26T03:30:40.122Z,20.30
2018-07-26T03:33:08.330Z,20.30
2018-07-26T03:35:36.518Z,20.30
2018-07-26T03:38:04.796Z,20.30
2018-07-26T03:40:32.951Z,20.30
2018-07-26T03:43:01.142Z,20.30
2018-07-26T03:45:29.343Z,20.30
2018-07-26T03:47:57.536Z,20.20
2018-07-26T03:50:25.802Z,20.30
2018-07-26T03:52:53.989Z,20.30
2018-07-26T03:55:22.159Z,20.30
2018-07-26T03:57:50.582Z,20.30
2018-07-26T04:00:18.703Z,20.30
2018-07-26T04:02:46.877Z,20.40
2018-07-26T04:05:15.095Z,20.40
2018-07-26T04:07:43.390Z,20.40
2018-07-26T04:10:11.572Z,20.40
2018-07-26T04:12:39.779Z,20.40
2018-07-26T04:15:08.020Z,20.30
2018-07-26T04:17:36.224Z,20.30
2018-07-26T04:20:04.538Z,20.30
2018-07-26T04:22:32.736Z,20.40
2018-07-26T04:25:00.935Z,20.50
2018-07-26T04:27:29.145Z,20.50
2018-07-26T04:29:57.309Z,20.50
2018-07-26T04:34:53.460Z,20.60
2018-07-26T04:37:21.679Z,20.60
2018-07-26T04:39:49.861Z,20.60
2018-07-26T04:42:18.035Z,20.70
2018-07-26T04:44:46.239Z,20.70
2018-07-26T04:47:14.404Z,20.80
2018-07-26T04:49:42.597Z,20.80
2018-07-26T04:52:10.800Z,20.90
2018-07-26T04:54:39.022Z,21.00
2018-07-26T04:57:07.130Z,21.00
2018-07-26T04:59:35.460Z,21.00
2018-07-26T05:02:03.763Z,21.10
2018-07-26T05:04:32.134Z,21.20
2018-07-26T05:07:00.308Z,21.20
2018-07-26T05:09:28.476Z,21.20
2018-07-26T05:11:56.640Z,21.30
2018-07-26T05:14:24.856Z,21.40
2018-07-26T05:16:53.240Z,21.50
2018-07-26T05:19:21.459Z,21.50
2018-07-26T05:21:49.660Z,21.60
2018-07-26T05:24:17.859Z,21.60
2018-07-26T05:26:46.305Z,21.80
2018-07-26T05:29:14.491Z,21.80
2018-07-26T05:34:10.788Z,22.10
2018-07-26T05:36:38.929Z,22.10
2018-07-26T05:39:08.812Z,22.20
2018-07-26T05:41:37.259Z,22.20
2018-07-26T05:44:05.538Z,22.30
2018-07-26T05:46:33.762Z,22.40
2018-07-26T05:49:01.992Z,22.50
2018-07-26T05:51:30.518Z,22.50
2018-07-26T05:53:58.663Z,22.60
2018-07-26T05:56:26.795Z,22.60
2018-07-26T05:58:54.967Z,22.70
2018-07-26T06:01:23.932Z,22.80
2018-07-26T06:03:52.163Z,22.80
2018-07-26T06:06:20.304Z,22.90
2018-07-26T06:08:48.428Z,23.00
2018-07-26T06:11:16.581Z,23.10
2018-07-26T06:13:44.738Z,23.10
2018-07-26T06:16:12.865Z,23.20
2018-07-26T06:18:40.997Z,23.30
2018-07-26T06:21:09.164Z,23.30
2018-07-26T06:23:37.383Z,23.40
2018-07-26T06:26:05.600Z,23.50
2018-07-26T06:28:33.735Z,23.50
2018-07-26T06:31:01.992Z,23.60
2018-07-26T06:33:30.146Z,23.70
2018-07-26T06:35:58.252Z,23.80
2018-07-26T06:38:26.399Z,23.90
2018-07-26T06:40:54.543Z,24.00
2018-07-26T06:43:22.823Z,24.10
2018-07-26T06:45:50.991Z,24.20
2018-07-26T06:48:19.211Z,24.30
2018-07-26T06:50:47.357Z,24.30
2018-07-26T06:53:15.569Z,24.40
2018-07-26T06:55:43.756Z,24.50
2018-07-26T06:58:11.978Z,24.60
2018-07-26T07:00:40.168Z,24.60
2018-07-26T07:03:08.416Z,24.70
2018-07-26T07:05:36.594Z,24.90
2018-07-26T07:08:04.762Z,24.90
2018-07-26T07:10:33.169Z,25.00
2018-07-26T07:13:01.340Z,25.10
2018-07-26T07:15:29.524Z,25.10
2018-07-26T07:17:57.690Z,25.20
2018-07-26T07:20:25.861Z,25.30
2018-07-26T07:22:54.023Z,25.40
2018-07-26T07:25:22.412Z,25.40
2018-07-26T07:27:50.632Z,25.50
2018-07-26T07:30:18.856Z,25.60
2018-07-26T07:32:47.018Z,25.60
2018-07-26T07:35:15.231Z,25.80
2018-07-26T07:37:43.703Z,25.90
2018-07-26T07:40:12.924Z,26.00
2018-07-26T07:42:41.104Z,26.10
2018-07-26T07:45:09.751Z,26.30
2018-07-26T07:47:40.178Z,26.30
2018-07-26T07:50:08.357Z,26.40
2018-07-26T07:52:36.806Z,26.50
2018-07-26T07:55:05.317Z,26.60
2018-07-26T07:57:35.876Z,26.60
2018-07-26T08:00:05.448Z,26.70
2018-07-26T08:02:33.622Z,26.80
2018-07-26T08:05:01.796Z,27.00
2018-07-26T08:07:29.961Z,27.10
2018-07-26T08:09:58.146Z,27.20
2018-07-26T08:12:26.333Z,27.20
2018-07-26T08:14:54.518Z,27.30
2018-07-26T08:17:22.688Z,27.40
2018-07-26T08:19:50.887Z,27.50
2018-07-26T08:22:19.048Z,27.50
2018-07-26T08:27:15.129Z,27.70
2018-07-26T08:29:43.312Z,27.80
2018-07-26T08:32:11.895Z,27.90
2018-07-26T08:34:40.885Z,27.90
2018-07-26T08:37:09.086Z,28.00
2018-07-26T08:39:37.320Z,28.10
2018-07-26T08:42:05.536Z,28.20
2018-07-26T08:44:33.775Z,28.20
2018-07-26T08:47:01.939Z,28.20
2018-07-26T08:49:30.091Z,28.40
2018-07-26T08:51:58.315Z,28.50
2018-07-26T08:54:26.617Z,28.60
2018-07-26T08:56:54.845Z,28.70
2018-07-26T08:59:23.050Z,28.70
2018-07-26T09:01:51.421Z,28.80
2018-07-26T09:04:19.627Z,28.90
2018-07-26T09:06:47.840Z,28.90
2018-07-26T09:09:16.048Z,29.00
2018-07-26T09:11:44.191Z,29.10
2018-07-26T09:14:12.372Z,29.10
2018-07-26T09:16:40.647Z,29.30
2018-07-26T09:19:08.964Z,29.30
2018-07-26T09:21:37.212Z,29.30
2018-07-26T09:24:05.423Z,29.40
2018-07-26T09:26:33.635Z,29.40
2018-07-26T09:29:02.006Z,29.50
2018-07-26T09:31:30.125Z,29.60
2018-07-26T09:33:58.312Z,29.60
2018-07-26T09:36:26.661Z,29.60
2018-07-26T09:38:54.868Z,29.70
2018-07-26T09:41:23.100Z,29.70
2018-07-26T09:43:51.424Z,29.70
2018-07-26T09:46:19.614Z,29.70
2018-07-26T09:48:47.853Z,29.80
2018-07-26T09:51:16.011Z,29.90
2018-07-26T09:53:44.215Z,30.00
2018-07-26T09:56:12.411Z,30.10
2018-07-26T09:58:40.588Z,30.10
2018-07-26T10:01:14.080Z,30.10
2018-07-26T10:03:42.312Z,30.20
2018-07-26T10:06:10.579Z,30.30
2018-07-26T10:08:38.808Z,30.30
2018-07-26T10:11:07.396Z,30.40
2018-07-26T10:13:35.572Z,30.50
2018-07-26T10:16:03.740Z,30.50
2018-07-26T10:18:31.895Z,30.50
2018-07-26T10:21:00.116Z,30.50
2018-07-26T10:23:28.279Z,30.60
2018-07-26T10:25:56.486Z,30.60
2018-07-26T10:28:24.675Z,30.60
2018-07-26T10:30:52.940Z,30.70
2018-07-26T10:33:21.112Z,30.80
2018-07-26T10:35:49.295Z,30.90
2018-07-26T10:38:17.557Z,30.90
2018-07-26T10:40:45.763Z,30.90
2018-07-26T10:43:13.915Z,31.00
2018-07-26T10:45:42.192Z,31.10
2018-07-26T10:48:10.364Z,31.10
2018-07-26T10:50:38.560Z,31.20
2018-07-26T10:53:06.758Z,31.20
2018-07-26T10:55:34.983Z,31.30
2018-07-26T10:58:04.567Z,31.30
2018-07-26T11:00:32.899Z,31.40
2018-07-26T11:03:01.146Z,31.50
2018-07-26T11:05:29.391Z,31.60
2018-07-26T11:07:57.600Z,31.60
2018-07-26T11:10:25.805Z,31.70
2018-07-26T11:12:54.181Z,31.80
2018-07-26T11:15:26.513Z,31.90
2018-07-26T11:17:54.839Z,31.90
2018-07-26T11:20:23.097Z,31.80
2018-07-26T11:22:51.291Z,31.90
2018-07-26T11:25:19.550Z,31.90
2018-07-26T11:27:47.845Z,32.00
2018-07-26T11:30:16.067Z,32.10
2018-07-26T11:32:44.332Z,32.20
2018-07-26T11:35:12.907Z,32.30
2018-07-26T11:37:41.134Z,32.50
2018-07-26T11:40:09.456Z,32.60
2018-07-26T11:42:37.637Z,32.60
2018-07-26T11:45:06.487Z,32.70
2018-07-26T11:47:34.726Z,32.80
2018-07-26T11:50:03.186Z,32.90
2018-07-26T11:52:31.300Z,33.00
2018-07-26T11:54:59.473Z,33.00
2018-07-26T11:57:28.270Z,33.00
2018-07-26T11:59:56.428Z,32.90
2018-07-26T12:02:24.640Z,32.80
2018-07-26T12:04:52.824Z,32.80
2018-07-26T12:07:21.023Z,32.90
2018-07-26T12:09:49.168Z,33.00
2018-07-26T12:12:17.286Z,33.00
2018-07-26T12:14:45.403Z,33.00
2018-07-26T12:17:13.552Z,33.00
2018-07-26T12:19:41.721Z,32.90
2018-07-26T12:22:09.815Z,32.80
2018-07-26T12:24:38.081Z,32.80
2018-07-26T12:29:35.635Z,32.60
2018-07-26T12:32:03.801Z,32.50
2018-07-26T12:34:31.996Z,32.40
2018-07-26T12:37:00.167Z,32.30
2018-07-26T12:39:28.356Z,32.20
2018-07-26T12:41:56.582Z,32.10
2018-07-26T12:44:24.777Z,32.10
2018-07-26T12:46:52.992Z,32.20
2018-07-26T12:49:21.188Z,32.10
2018-07-26T12:51:49.359Z,32.10
2018-07-26T12:54:17.540Z,32.10
2018-07-26T12:56:45.716Z,32.10
2018-07-26T12:59:13.980Z,32.10
2018-07-26T13:01:42.162Z,32.10
2018-07-26T13:04:11.309Z,32.00
2018-07-26T13:06:39.448Z,32.00
2018-07-26T13:09:08.560Z,32.00
2018-07-26T13:11:36.777Z,32.00
2018-07-26T13:14:06.000Z,32.00
2018-07-26T13:16:34.206Z,32.00
2018-07-26T13:19:02.467Z,32.00
2018-07-26T13:21:30.737Z,32.10
2018-07-26T13:23:58.896Z,32.10
2018-07-26T13:26:27.119Z,32.10
2018-07-26T13:28:55.356Z,32.20
2018-07-26T13:31:23.506Z,32.20
2018-07-26T13:33:51.662Z,32.10
2018-07-26T13:36:19.803Z,32.20
2018-07-26T13:38:47.972Z,32.30
2018-07-26T13:41:16.407Z,32.40
2018-07-26T13:43:44.608Z,32.40
2018-07-26T13:46:12.860Z,32.50
2018-07-26T13:48:40.940Z,32.60
2018-07-26T13:51:09.216Z,32.60
2018-07-26T13:53:37.433Z,32.70
2018-07-26T13:56:05.726Z,32.70
2018-07-26T13:58:33.975Z,32.90
2018-07-26T14:01:02.052Z,33.00
2018-07-26T14:03:30.219Z,33.20
2018-07-26T14:05:58.503Z,33.30
2018-07-26T14:08:26.672Z,33.30
2018-07-26T14:10:55.227Z,33.40
2018-07-26T14:13:23.414Z,33.40
2018-07-26T14:15:51.687Z,33.50
2018-07-26T14:18:19.872Z,33.60
2018-07-26T14:20:48.118Z,33.70
2018-07-26T14:23:21.719Z,33.80
2018-07-26T14:25:49.856Z,33.80
2018-07-26T14:28:18.029Z,33.80
2018-07-26T14:30:46.238Z,33.70
2018-07-26T14:33:14.461Z,33.70
2018-07-26T14:35:42.708Z,33.70
2018-07-26T14:38:10.929Z,33.70
2018-07-26T14:40:39.131Z,33.60
2018-07-26T14:43:07.331Z,33.40
2018-07-26T14:45:35.525Z,33.30
2018-07-26T14:48:03.785Z,33.20
2018-07-26T14:50:31.979Z,33.20
2018-07-26T14:53:00.165Z,33.20
2018-07-26T14:55:28.424Z,33.20
2018-07-26T14:57:56.603Z,33.10
2018-07-26T15:00:24.764Z,33.00
2018-07-26T15:02:53.128Z,32.80
2018-07-26T15:05:21.419Z,32.80
2018-07-26T15:07:49.630Z,32.90
2018-07-26T15:10:17.778Z,32.80
2018-07-26T15:12:45.956Z,32.80
2018-07-26T15:15:14.128Z,32.80
2018-07-26T15:17:42.363Z,32.80
2018-07-26T15:20:10.543Z,32.80
2018-07-26T15:22:38.713Z,32.70
2018-07-26T15:25:06.919Z,32.70
2018-07-26T15:27:35.109Z,32.60
2018-07-26T15:30:03.284Z,32.50
2018-07-26T15:32:31.485Z,32.30
2018-07-26T15:34:59.636Z,32.30
2018-07-26T15:37:27.877Z,32.20
2018-07-26T15:39:56.016Z,32.20
2018-07-26T15:42:24.218Z,32.30
2018-07-26T15:44:52.408Z,32.30
2018-07-26T15:47:20.583Z,32.30
2018-07-26T15:49:48.932Z,32.30
2018-07-26T15:52:17.065Z,32.30
2018-07-26T15:54:45.240Z,32.30
2018-07-26T15:57:13.408Z,32.30
2018-07-26T15:59:41.563Z,32.30
2018-07-26T16:02:10.117Z,32.30
2018-07-26T16:04:38.278Z,32.30
2018-07-26T16:07:06.416Z,32.30
2018-07-26T16:09:34.557Z,32.30
2018-07-26T16:12:02.745Z,32.30
2018-07-26T16:14:30.904Z,32.30
2018-07-26T16:16:59.056Z,32.10
2018-07-26T16:19:27.261Z,32.10
2018-07-26T16:21:55.456Z,32.10
2018-07-26T16:24:23.604Z,32.00
2018-07-26T16:27:18.859Z,32.00
2018-07-26T16:29:47.228Z,32.00
2018-07-26T16:32:15.436Z,31.80
2018-07-26T16:34:43.610Z,31.80
2018-07-26T16:37:11.755Z,31.70
2018-07-26T16:39:39.899Z,31.60
2018-07-26T16:42:08.274Z,31.50
2018-07-26T16:47:04.447Z,31.40
2018-07-26T16:49:32.731Z,31.40
2018-07-26T16:52:01.267Z,31.40
2018-07-26T16:54:29.485Z,31.30
2018-07-26T16:56:57.736Z,31.30
2018-07-26T16:59:25.948Z,31.30
2018-07-26T17:01:54.169Z,31.20
2018-07-26T17:04:22.469Z,31.30
2018-07-26T17:06:50.804Z,31.10
2018-07-26T17:09:19.082Z,31.10
2018-07-26T17:11:47.263Z,31.00
2018-07-26T17:14:15.465Z,31.00
2018-07-26T17:16:43.691Z,31.00
2018-07-26T17:19:11.927Z,30.90
2018-07-26T17:21:40.210Z,30.90
2018-07-26T17:24:08.391Z,30.80
2018-07-26T17:26:36.645Z,30.70
2018-07-26T17:29:05.440Z,30.70
2018-07-26T17:31:33.616Z,30.70
2018-07-26T17:34:01.776Z,30.70
2018-07-26T17:36:39.358Z,30.60
2018-07-26T17:39:08.994Z,30.60
2018-07-26T17:41:37.365Z,30.50
2018-07-26T17:44:05.908Z,30.50
2018-07-26T17:46:34.431Z,30.50
2018-07-26T17:49:03.528Z,30.40
2018-07-26T17:51:32.166Z,30.40
2018-07-26T17:54:00.485Z,30.40
2018-07-26T17:56:28.936Z,30.20
2018-07-26T17:58:57.487Z,30.10
2018-07-26T18:01:25.621Z,30.10
2018-07-26T18:03:54.015Z,30.00
2018-07-26T18:06:22.768Z,30.10
2018-07-26T18:08:51.230Z,30.00
2018-07-26T18:11:19.516Z,29.90
2018-07-26T18:13:48.829Z,29.80
2018-07-26T18:16:18.100Z,29.80
2018-07-26T18:18:46.350Z,29.70
2018-07-26T18:21:16.741Z,29.70
2018-07-26T18:23:46.992Z,29.70
2018-07-26T18:26:16.338Z,29.60
2018-07-26T18:31:16.311Z,29.50
2018-07-26T18:33:44.609Z,29.40
2018-07-26T18:36:13.983Z,29.40
2018-07-26T18:38:43.303Z,29.40
2018-07-26T18:41:11.616Z,29.30
2018-07-26T18:43:39.823Z,29.10
2018-07-26T18:46:08.035Z,29.10
2018-07-26T18:48:36.343Z,29.00
2018-07-26T18:51:04.526Z,28.90
2018-07-26T18:53:32.773Z,28.90
2018-07-26T18:56:01.197Z,28.80
2018-07-26T18:58:29.476Z,28.70
2018-07-26T19:00:57.639Z,28.70
2018-07-26T19:05:53.793Z,28.60
2018-07-26T19:08:21.935Z,28.50
2018-07-26T19:10:50.088Z,28.50
2018-07-26T19:13:18.355Z,28.40
2018-07-26T19:15:46.488Z,28.30
2018-07-26T19:18:14.622Z,28.30
2018-07-26T19:20:42.833Z,28.20
2018-07-26T19:23:15.009Z,28.20
2018-07-26T19:25:43.219Z,28.10
2018-07-26T19:28:11.414Z,28.00
2018-07-26T19:30:42.298Z,28.00
2018-07-26T19:33:10.473Z,27.90
2018-07-26T19:35:38.664Z,27.80
2018-07-26T19:38:06.808Z,27.80
2018-07-26T19:40:34.981Z,27.70
2018-07-26T19:43:03.305Z,27.70
2018-07-26T19:45:31.520Z,27.70
2018-07-26T19:47:59.688Z,27.50
2018-07-26T19:50:27.844Z,27.50
2018-07-26T19:52:56.100Z,27.50
2018-07-26T19:55:24.371Z,27.40
2018-07-26T19:57:52.590Z,27.40
2018-07-26T20:00:20.741Z,27.30
2018-07-26T20:02:48.912Z,27.20
2018-07-26T20:05:17.072Z,27.20
2018-07-26T20:07:45.289Z,27.10
2018-07-26T20:10:13.798Z,27.10
2018-07-26T20:12:42.294Z,27.00
2018-07-26T20:15:10.536Z,27.00
2018-07-26T20:17:38.762Z,27.00
2018-07-26T20:20:08.773Z,26.90
2018-07-26T20:22:37.034Z,26.90
2018-07-26T20:25:05.514Z,26.90
2018-07-26T20:27:33.802Z,26.80
2018-07-26T20:30:02.245Z,26.80
2018-07-26T20:32:30.437Z,26.80
2018-07-26T20:34:58.705Z,26.70
2018-07-26T20:37:26.903Z,26.70
2018-07-26T20:39:55.173Z,26.60
2018-07-26T20:42:23.408Z,26.60
2018-07-26T20:44:51.677Z,26.50
2018-07-26T20:47:19.995Z,26.50
2018-07-26T20:49:48.147Z,26.50
2018-07-26T20:52:16.312Z,26.40
2018-07-26T20:54:44.757Z,26.30
2018-07-26T20:57:12.965Z,26.30
2018-07-26T20:59:41.201Z,26.30
2018-07-26T21:02:18.817Z,26.30
2018-07-26T21:04:46.921Z,26.20
2018-07-26T21:07:15.071Z,26.20
2018-07-26T21:09:43.204Z,26.10
2018-07-26T21:12:11.383Z,26.10
2018-07-26T21:14:39.505Z,26.00
2018-07-26T21:17:07.657Z,26.00
2018-07-26T21:19:35.803Z,25.90
2018-07-26T21:22:04.024Z,25.90
2018-07-26T21:24:32.160Z,25.90
2018-07-26T21:27:00.468Z,25.90
2018-07-26T21:29:28.619Z,25.80
2018-07-26T21:31:56.791Z,25.70
2018-07-26T21:34:24.960Z,25.70
2018-07-26T21:36:53.148Z,25.70
2018-07-26T21:39:21.377Z,25.70
2018-07-26T21:41:49.716Z,25.70
2018-07-26T21:46:45.931Z,25.60
2018-07-26T21:49:14.224Z,25.60
2018-07-26T21:51:42.537Z,25.50
2018-07-26T21:54:11.264Z,25.50
2018-07-26T21:56:39.560Z,25.40
2018-07-26T21:59:08.511Z,25.40
2018-07-26T22:01:36.727Z,25.30
2018-07-26T22:04:05.159Z,25.30
2018-07-26T22:06:33.331Z,25.20
2018-07-26T22:09:01.672Z,25.20
2018-07-26T22:11:29.840Z,25.20
2018-07-26T22:13:58.616Z,25.10
2018-07-26T22:16:26.765Z,25.10
2018-07-26T22:18:54.871Z,25.00
2018-07-26T22:21:22.990Z,25.00
2018-07-26T22:23:51.164Z,25.10
2018-07-26T22:26:19.351Z,25.00
2018-07-26T22:28:47.526Z,24.90
2018-07-26T22:31:15.656Z,24.80
2018-07-26T22:33:43.823Z,24.70
2018-07-26T22:36:11.988Z,24.70
2018-07-26T22:38:40.151Z,24.60
2018-07-26T22:41:08.499Z,24.60
2018-07-26T22:43:36.622Z,24.60
2018-07-26T22:46:04.764Z,24.50
2018-07-26T22:48:32.916Z,24.50
2018-07-26T22:51:01.072Z,24.40
2018-07-26T22:53:29.212Z,24.30
2018-07-26T22:55:57.364Z,24.30
2018-07-26T22:58:25.514Z,24.30
2018-07-26T23:00:53.631Z,24.20
2018-07-26T23:03:21.871Z,24.10
2018-07-26T23:05:50.012Z,24.10
2018-07-26T23:08:18.145Z,24.00
2018-07-26T23:10:46.315Z,24.00
2018-07-26T23:13:14.492Z,24.00
2018-07-26T23:15:42.644Z,23.90
2018-07-26T23:18:10.744Z,23.80
2018-07-26T23:20:38.844Z,23.80
2018-07-26T23:23:07.024Z,23.70
2018-07-26T23:25:35.223Z,23.70
2018-07-26T23:28:03.412Z,23.70
2018-07-26T23:30:31.591Z,23.60
2018-07-26T23:32:59.764Z,23.60
2018-07-26T23:35:27.938Z,23.50
2018-07-26T23:37:56.083Z,23.40
2018-07-26T23:40:24.257Z,23.40
2018-07-26T23:42:52.435Z,23.40
2018-07-26T23:45:20.593Z,23.30
2018-07-26T23:47:48.768Z,23.20
2018-07-26T23:50:16.984Z,23.20
2018-07-26T23:52:45.141Z,23.20
2018-07-26T23:55:13.322Z,23.10
2018-07-26T23:57:41.517Z,23.10
